Terminal Aerodrome Forecast
Issued by NWS

Home | Current Version | Previous Version | Text Only | Print | Product List | Glossary On
Versions: 1 2 3 4 5 6 7 8 9 10 11 12 13 14 15 16 17 18
000
FTUS43 KDTX 170309 AAA
TAFYIP
TAF AMD
KYIP 170309Z 1703/1724 07007KT 2SM -SHRA BR OVC008
      TEMPO 1703/1706 4SM BR OVC013
     FM170600 09007KT 1SM RA BR OVC004
     FM171100 12005KT 3/4SM SHRA BR VV003
     FM171600 22012KT 5SM BR OVC015=

USA.gov is the U.S. government's official web portal to all federal, state and local government web resources and services.